Time;durP1;ratioP1;P1;durP2;ratioP2;P2;SDS_P1;SDS_P2;PMS_P1;PMS_P2;Temp;Humidity;BMP_temperature;BMP_pressure;BME280_temperature;BME280_humidity;BME280_pressure;Samples;Min_cycle;Max_cycle;Signal;HPM_P1;HPM_P2
2024/04/15 00:00:37;;;;;;;6.40;2.60;;;;;;;10.56;100.00;101550.22;5436182;26;19992;-39
2024/04/15 00:03:03;;;;;;;6.67;2.93;;;;;;;10.63;100.00;101556.41;5435298;26;20002;-39
2024/04/15 00:05:29;;;;;;;8.32;3.13;;;;;;;10.56;100.00;101551.06;5426597;26;20607;-39
2024/04/15 00:07:54;;;;;;;8.80;2.97;;;;;;;10.46;100.00;101539.84;5420087;26;20019;-39
2024/04/15 00:10:19;;;;;;;7.83;3.17;;;;;;;10.37;100.00;101548.41;5420188;26;20374;-39
2024/04/15 00:12:45;;;;;;;5.00;2.60;;;;;;;10.25;100.00;101534.72;5419656;26;20319;-39
2024/04/15 00:15:10;;;;;;;7.17;2.67;;;;;;;10.26;100.00;101539.09;5420104;26;19991;-39
2024/04/15 00:17:35;;;;;;;6.70;3.30;;;;;;;10.22;100.00;101538.66;5420237;26;20222;-39
2024/04/15 00:20:01;;;;;;;8.33;3.07;;;;;;;10.23;100.00;101528.66;5419968;26;19995;-39
2024/04/15 00:22:26;;;;;;;7.60;2.92;;;;;;;10.11;100.00;101511.44;5419826;26;20011;-39
2024/04/15 00:24:52;;;;;;;9.90;3.60;;;;;;;10.13;100.00;101528.28;5419874;26;19992;-39
2024/04/15 00:27:17;;;;;;;10.13;3.53;;;;;;;10.03;100.00;101507.09;5419907;26;19995;-39
2024/04/15 00:29:42;;;;;;;5.22;2.97;;;;;;;10.03;100.00;101510.63;5420834;26;19996;-38
2024/04/15 00:32:08;;;;;;;5.68;3.53;;;;;;;10.03;100.00;101507.09;5419807;26;20068;-39
2024/04/15 00:34:33;;;;;;;7.37;3.10;;;;;;;9.98;100.00;101502.31;5420202;26;20007;-39
2024/04/15 00:36:59;;;;;;;7.13;3.45;;;;;;;9.95;100.00;101488.38;5419678;26;20003;-40
2024/04/15 00:39:27;;;;;;;7.80;3.58;;;;;;;9.90;100.00;101493.59;5419971;26;19991;-39
2024/04/15 00:41:52;;;;;;;6.47;4.10;;;;;;;9.80;100.00;101492.16;5419809;26;20011;-39
2024/04/15 00:44:18;;;;;;;9.75;4.13;;;;;;;9.81;100.00;101482.22;5420307;26;20041;-39
2024/04/15 00:46:43;;;;;;;5.72;3.70;;;;;;;9.72;100.00;101480.75;5419841;26;20011;-39
2024/04/15 00:49:10;;;;;;;8.25;4.22;;;;;;;9.72;100.00;101470.78;5419822;26;20088;-39
2024/04/15 00:51:37;;;;;;;8.07;3.47;;;;;;;9.75;100.00;101462.25;5419445;26;20320;-40
2024/04/15 00:54:05;;;;;;;8.15;4.15;;;;;;;9.65;100.00;101458.31;5419878;26;20010;-40
2024/04/15 00:56:30;;;;;;;6.10;3.85;;;;;;;9.61;100.00;101443.56;5419373;26;19999;-40
2024/04/15 00:58:57;;;;;;;8.77;4.18;;;;;;;9.63;100.00;101453.13;5420021;26;20383;-39
2024/04/15 01:01:23;;;;;;;8.90;4.05;;;;;;;9.53;100.00;101444.63;5419391;26;20464;-39
2024/04/15 01:03:50;;;;;;;8.68;4.40;;;;;;;9.46;100.00;101436.53;5420091;26;20000;-39
2024/04/15 01:06:15;;;;;;;6.93;4.30;;;;;;;9.45;100.00;101437.56;5419254;26;20010;-39
2024/04/15 01:08:41;;;;;;;6.82;4.15;;;;;;;9.44;100.00;101433.22;5420252;26;19995;-39
2024/04/15 01:11:06;;;;;;;8.27;4.30;;;;;;;9.45;100.00;101437.56;5419846;26;19999;-39
2024/04/15 01:13:31;;;;;;;8.68;4.35;;;;;;;9.41;100.00;101427.41;5419357;26;20018;-39
2024/04/15 01:15:58;;;;;;;10.90;4.70;;;;;;;9.32;100.00;101420.53;5419796;26;20007;-39
2024/04/15 01:18:23;;;;;;;;;;;;;;;9.55;100.00;101421.78;5418555;26;20721;-39
2024/04/15 01:20:50;;;;;;;6.43;4.15;;;;;;;9.43;100.00;101415.38;5420014;26;19925;-39
2024/04/15 01:23:21;;;;;;;7.65;4.35;;;;;;;9.36;100.00;101419.91;5419582;26;19996;-39
2024/04/15 01:25:47;;;;;;;10.18;4.93;;;;;;;9.31;100.00;101422.41;5419582;26;20007;-39
2024/04/15 01:28:13;;;;;;;8.23;4.37;;;;;;;9.27;100.00;101423.88;5418944;26;19991;-39
2024/04/15 01:30:39;;;;;;;10.30;4.70;;;;;;;9.20;100.00;101417.66;5419053;26;20003;-39
2024/04/15 01:33:05;;;;;;;8.18;4.60;;;;;;;9.22;100.00;101418.28;5418794;26;20072;-39
2024/04/15 01:35:30;;;;;;;8.55;4.70;;;;;;;9.17;100.00;101421.59;5419394;26;19987;-39
2024/04/15 01:37:56;;;;;;;7.57;4.88;;;;;;;9.20;100.00;101420.34;5418513;26;19999;-39
2024/04/15 01:40:21;;;;;;;7.53;4.30;;;;;;;9.31;100.00;101421.59;5418822;26;20331;-40
2024/04/15 01:42:46;;;;;;;8.63;4.63;;;;;;;9.34;100.00;101405.00;5416645;26;20094;-40
2024/04/15 01:45:12;;;;;;;6.70;4.27;;;;;;;9.32;100.00;101407.06;5418744;26;20213;-40
2024/04/15 01:47:37;;;;;;;8.60;4.50;;;;;;;9.20;100.00;101404.16;5419084;26;20003;-40
2024/04/15 01:50:03;;;;;;;7.00;4.07;;;;;;;9.29;100.00;101400.22;5418930;26;20107;-39
2024/04/15 01:52:28;;;;;;;5.85;3.80;;;;;;;9.27;100.00;101396.88;5418670;26;20002;-38
2024/04/15 01:54:53;;;;;;;7.87;4.07;;;;;;;9.24;100.00;101397.31;5418452;26;20007;-39
2024/04/15 01:57:19;;;;;;;7.73;4.60;;;;;;;9.27;100.00;101388.78;5418560;26;20002;-39
2024/04/15 01:59:44;;;;;;;7.80;4.37;;;;;;;9.17;100.00;101372.19;5418842;26;20002;-40
2024/04/15 02:02:09;;;;;;;8.90;3.93;;;;;;;9.15;100.00;101385.91;5418518;26;20010;-40
2024/04/15 02:04:35;;;;;;;7.07;3.67;;;;;;;9.15;100.00;101368.88;5418661;26;20003;-40
2024/04/15 02:07:00;;;;;;;11.83;3.77;;;;;;;9.17;100.00;101372.19;5418475;26;19991;-40
2024/04/15 02:09:25;;;;;;;9.20;4.47;;;;;;;9.23;100.00;101360.59;5418681;26;20003;-40
2024/04/15 02:11:51;;;;;;;8.33;4.00;;;;;;;9.15;100.00;101341.91;5418411;26;20705;-40
2024/04/15 02:14:16;;;;;;;8.00;4.03;;;;;;;9.15;100.00;101340.03;5418804;26;20019;-39
2024/04/15 02:16:41;;;;;;;7.57;3.90;;;;;;;9.19;100.00;101345.84;5418000;26;20003;-39
2024/04/15 02:19:06;;;;;;;7.43;4.03;;;;;;;9.16;100.00;101344.38;5418341;26;20006;-39
2024/04/15 02:21:32;;;;;;;8.83;3.90;;;;;;;9.10;100.00;101345.22;5418350;26;19991;-40
2024/04/15 02:23:57;;;;;;;6.38;3.70;;;;;;;9.09;100.00;101340.88;5418780;26;20000;-40
2024/04/15 02:26:23;;;;;;;10.80;3.73;;;;;;;9.07;100.00;101334.00;5417855;26;19992;-40
2024/04/15 02:28:48;;;;;;;7.33;4.07;;;;;;;8.89;100.00;101315.78;5417989;26;20217;-39
2024/04/15 02:31:13;;;;;;;5.43;3.40;;;;;;;8.95;100.00;101333.81;5418372;26;20026;-39
2024/04/15 02:33:39;;;;;;;6.40;3.27;;;;;;;8.92;100.00;101331.53;5417998;26;19996;-40
2024/04/15 02:36:04;;;;;;;6.60;3.07;;;;;;;8.85;100.00;101320.75;5417625;26;20007;-40
2024/04/15 02:38:29;;;;;;;9.27;3.67;;;;;;;8.93;100.00;101331.34;5417889;26;20237;-40
2024/04/15 02:40:55;;;;;;;7.17;3.30;;;;;;;8.87;100.00;101313.28;5418008;26;19995;-39
2024/04/15 02:43:21;;;;;;;6.18;3.10;;;;;;;8.80;100.00;101323.25;5417522;26;20327;-40
2024/04/15 02:45:47;;;;;;;7.90;3.05;;;;;;;8.74;100.00;101322.22;5418087;26;20027;-40
2024/04/15 02:48:16;;;;;;;8.18;3.35;;;;;;;8.77;100.00;101323.66;5417714;26;20069;-37
2024/04/15 02:50:41;;;;;;;7.18;2.65;;;;;;;8.80;100.00;101336.72;5418012;26;19996;-40
2024/04/15 02:53:07;;;;;;;9.70;3.22;;;;;;;8.71;100.00;101324.50;5417466;26;20002;-39
2024/04/15 02:55:32;;;;;;;5.90;2.67;;;;;;;8.74;100.00;101318.69;5417937;26;20068;-40
2024/04/15 02:57:58;;;;;;;7.90;2.60;;;;;;;8.69;100.00;101319.31;5417636;26;20257;-39
2024/04/15 03:00:24;;;;;;;9.02;3.08;;;;;;;8.63;100.00;101319.28;5418511;26;20335;-40
2024/04/15 03:02:53;;;;;;;7.70;2.55;;;;;;;8.60;100.00;101317.84;5417711;26;20003;-40
2024/04/15 03:05:20;;;;;;;10.07;2.78;;;;;;;8.55;100.00;101314.94;5417752;26;20006;-40
2024/04/15 03:07:48;;;;;;;6.53;2.10;;;;;;;8.50;100.00;101296.69;5417410;26;20000;-40
2024/04/15 03:10:13;;;;;;;5.30;2.50;;;;;;;8.54;100.00;101305.22;5417734;26;19996;-40
2024/04/15 03:12:39;;;;;;;7.50;2.53;;;;;;;8.56;100.00;101299.59;5417391;26;20006;-40
2024/04/15 03:15:04;;;;;;;8.67;2.57;;;;;;;8.56;100.00;101305.81;5417587;26;20254;-40
2024/04/15 03:17:30;;;;;;;7.47;2.53;;;;;;;8.55;100.00;101304.16;5417574;26;20416;-40
2024/04/15 03:19:55;;;;;;;5.60;2.50;;;;;;;8.45;100.00;101283.00;5418138;26;20006;-40
2024/04/15 03:22:21;;;;;;;8.60;2.90;;;;;;;8.46;100.00;101290.06;5417821;26;19995;-40
2024/04/15 03:24:49;;;;;;;8.52;2.20;;;;;;;8.44;100.00;101281.34;5418038;26;19996;-39
2024/04/15 03:27:16;;;;;;;9.32;2.80;;;;;;;8.44;100.00;101280.50;5416989;26;19991;-39
2024/04/15 03:29:41;;;;;;;7.57;2.15;;;;;;;8.39;100.00;101278.41;5416894;26;19996;-39
2024/04/15 03:32:06;;;;;;;8.07;2.17;;;;;;;8.43;100.00;101276.16;5417041;26;20094;-39
2024/04/15 03:34:32;;;;;;;8.20;2.37;;;;;;;8.41;100.00;101273.66;5417472;26;20069;-40
2024/04/15 03:36:57;;;;;;;8.73;2.40;;;;;;;8.36;100.00;101273.47;5416666;26;20001;-39
2024/04/15 03:39:22;;;;;;;7.23;2.47;;;;;;;8.30;100.00;101260.78;5417207;26;20008;-39
2024/04/15 03:41:48;;;;;;;6.63;2.10;;;;;;;8.31;100.00;101254.34;5419947;26;20010;-39
2024/04/15 03:44:13;;;;;;;5.47;2.30;;;;;;;8.32;100.00;101256.00;5420814;26;20307;-39
2024/04/15 03:46:38;;;;;;;8.40;2.30;;;;;;;8.20;100.00;101246.88;5420151;26;20015;-39
2024/04/15 03:49:04;;;;;;;7.63;2.50;;;;;;;8.22;100.00;101244.81;5420518;26;20010;-40
2024/04/15 03:51:29;;;;;;;5.97;2.03;;;;;;;8.19;100.00;101242.50;5420354;26;19999;-39
2024/04/15 03:53:54;;;;;;;6.63;1.90;;;;;;;8.18;100.00;101232.78;5420108;26;20341;-39
2024/04/15 03:56:20;;;;;;;5.70;2.10;;;;;;;8.13;100.00;101227.19;5420704;26;19991;-39
2024/04/15 03:58:45;;;;;;;6.47;2.47;;;;;;;8.12;100.00;101228.22;5420609;26;20021;-39
2024/04/15 04:01:10;;;;;;;8.35;2.90;;;;;;;8.08;100.00;101216.19;5420193;26;20441;-39
2024/04/15 04:03:36;;;;;;;7.23;2.27;;;;;;;8.05;100.00;101212.03;5421175;26;20044;-39
2024/04/15 04:06:01;;;;;;;9.03;2.43;;;;;;;8.01;100.00;101213.50;5420180;26;19996;-39
2024/04/15 04:08:26;;;;;;;7.87;2.20;;;;;;;8.04;100.00;101212.25;5420461;26;19996;-40
2024/04/15 04:10:52;;;;;;;8.13;2.30;;;;;;;8.00;100.00;101203.75;5420506;26;20253;-40
2024/04/15 04:13:17;;;;;;;9.50;2.10;;;;;;;7.96;100.00;101199.81;5420290;26;20011;-40
2024/04/15 04:15:44;;;;;;;7.27;2.10;;;;;;;7.85;100.00;101190.47;5420390;26;19999;-40
2024/04/15 04:18:09;;;;;;;8.07;2.10;;;;;;;7.77;100.00;101187.16;5419877;26;20072;-39
2024/04/15 04:20:35;;;;;;;5.03;2.05;;;;;;;7.94;100.00;101205.38;5420617;26;20308;-40
2024/04/15 04:23:00;;;;;;;5.87;1.83;;;;;;;7.84;100.00;101191.50;5419942;26;19999;-40
2024/04/15 04:25:25;;;;;;;7.50;2.00;;;;;;;7.94;100.00;101200.00;5420229;26;20459;-40
2024/04/15 04:27:51;;;;;;;8.33;2.40;;;;;;;7.87;100.00;101187.59;5420496;26;20007;-40
2024/04/15 04:30:16;;;;;;;10.07;2.58;;;;;;;7.89;100.00;101180.13;5420348;26;20689;-39
2024/04/15 04:32:42;;;;;;;7.17;2.10;;;;;;;7.84;100.00;101180.72;5419764;26;19995;-40
2024/04/15 04:35:11;;;;;;;8.32;2.47;;;;;;;7.80;100.00;101176.78;5419959;26;20011;-39
2024/04/15 04:37:36;;;;;;;8.70;2.83;;;;;;;7.79;100.00;101163.53;5419484;26;20064;-39
2024/04/15 04:40:01;;;;;;;13.93;3.50;;;;;;;7.84;100.00;101175.34;5419654;26;20004;-39
2024/04/15 04:42:27;;;;;;;9.37;2.53;;;;;;;7.83;100.00;101164.78;5419061;26;20447;-40
2024/04/15 04:44:56;;;;;;;9.13;2.53;;;;;;;7.86;100.00;101159.84;5419174;26;20003;-40
2024/04/15 04:47:22;;;;;;;11.35;2.75;;;;;;;7.65;100.00;101143.84;5419325;26;20704;-39
2024/04/15 04:49:48;;;;;;;8.38;2.47;;;;;;;7.77;100.00;101163.75;5419937;26;19995;-39
2024/04/15 04:52:13;;;;;;;6.70;2.45;;;;;;;7.77;100.00;101155.69;5419294;26;19991;-40
2024/04/15 04:54:39;;;;;;;6.03;2.00;;;;;;;7.74;100.00;101156.91;5419760;26;19999;-39
2024/04/15 04:57:04;;;;;;;8.73;2.70;;;;;;;7.74;100.00;101162.28;5419755;26;20423;-40
2024/04/15 04:59:30;;;;;;;10.13;2.47;;;;;;;7.81;100.00;101167.69;5419987;26;19999;-40
2024/04/15 05:01:55;;;;;;;11.07;2.63;;;;;;;7.80;100.00;101154.41;5419599;26;19995;-39
2024/04/15 05:04:21;;;;;;;6.03;2.20;;;;;;;7.83;100.00;101160.22;5419689;26;20007;-39
2024/04/15 05:06:46;;;;;;;5.38;2.35;;;;;;;7.84;100.00;101144.91;5419470;26;19991;-38
2024/04/15 05:09:11;;;;;;;13.23;2.87;;;;;;;7.78;100.00;101140.34;5419614;26;20003;-40
2024/04/15 05:11:37;;;;;;;8.07;2.17;;;;;;;7.84;100.00;101137.66;5419492;26;20011;-39
2024/04/15 05:14:02;;;;;;;7.97;2.47;;;;;;;7.82;100.00;101131.66;5419679;26;20003;-39
2024/04/15 05:16:28;;;;;;;6.18;2.03;;;;;;;7.78;100.00;101141.16;5419426;26;20006;-39
2024/04/15 05:18:53;;;;;;;9.90;2.83;;;;;;;7.83;100.00;101133.31;5419739;26;20022;-39
2024/04/15 05:21:19;;;;;;;9.53;2.73;;;;;;;7.81;100.00;101132.69;5419461;26;20000;-39
2024/04/15 05:23:45;;;;;;;8.13;2.90;;;;;;;7.80;100.00;101138.25;5419339;26;20014;-38
2024/04/15 05:26:10;;;;;;;;;;;;;;;7.94;100.00;101127.28;5419832;26;20067;-40
2024/04/15 05:28:36;;;;;;;4.97;2.30;;;;;;;7.83;100.00;101119.03;5419560;26;19933;-39
2024/04/15 05:31:01;;;;;;;12.13;3.78;;;;;;;7.81;100.00;101121.94;5418943;26;19995;-40
2024/04/15 05:33:27;;;;;;;8.90;3.50;;;;;;;7.76;100.00;101124.41;5418833;26;20007;-39
2024/04/15 05:35:53;;;;;;;8.10;2.55;;;;;;;7.78;100.00;101118.81;5418938;26;19996;-39
2024/04/15 05:38:18;;;;;;;13.50;3.20;;;;;;;7.79;100.00;101117.78;5418623;26;20007;-39
2024/04/15 05:40:44;;;;;;;8.47;2.47;;;;;;;7.88;100.00;101109.28;5418903;26;20665;-39
2024/04/15 05:43:10;;;;;;;8.15;2.92;;;;;;;7.96;100.00;101109.09;5419107;26;20006;-39
2024/04/15 05:45:39;;;;;;;;;;;;;;;8.16;100.00;101108.25;5419366;26;19991;-40
2024/04/15 05:48:05;;;;;;;9.18;2.45;;;;;;;8.16;100.00;101110.94;5418739;26;19925;-38
2024/04/15 05:50:30;;;;;;;13.60;2.97;;;;;;;8.25;100.00;101104.31;5418657;26;19996;-39
2024/04/15 05:52:56;;;;;;;7.25;3.05;;;;;;;8.22;100.00;101113.63;5418607;26;20461;-40
2024/04/15 05:55:21;;;;;;;7.07;2.55;;;;;;;8.22;100.00;101119.00;5418406;26;20339;-39
2024/04/15 05:57:47;;;;;;;8.82;2.70;;;;;;;8.27;100.00;101113.00;5419281;26;20008;-39
2024/04/15 06:00:13;;;;;;;8.50;2.77;;;;;;;8.38;100.00;101098.91;5419521;26;20002;-40
2024/04/15 06:02:39;;;;;;;8.38;2.30;;;;;;;8.50;100.00;101107.19;5418021;26;20011;-39
2024/04/15 06:05:04;;;;;;;8.70;2.22;;;;;;;8.60;100.00;101098.66;5419106;26;20123;-39
2024/04/15 06:07:30;;;;;;;8.38;2.38;;;;;;;8.63;100.00;101100.91;5418494;26;19996;-39
2024/04/15 06:09:55;;;;;;;9.57;2.00;;;;;;;8.62;100.00;101094.72;5419462;26;20343;-39
2024/04/15 06:12:21;;;;;;;10.32;2.78;;;;;;;8.76;100.00;101111.69;5418767;26;19991;-39
2024/04/15 06:14:46;;;;;;;9.23;2.33;;;;;;;8.87;100.00;101097.53;5419175;26;19996;-39
2024/04/15 06:17:11;;;;;;;8.82;2.63;;;;;;;8.87;100.00;101083.22;5418343;26;20002;-39
2024/04/15 06:19:37;;;;;;;6.43;2.03;;;;;;;8.98;100.00;101083.38;5418645;26;19995;-41
2024/04/15 06:22:02;;;;;;;7.20;2.43;;;;;;;9.08;100.00;101082.94;5418539;26;19995;-40
2024/04/15 06:24:27;;;;;;;9.93;3.45;;;;;;;8.95;100.00;101067.63;5418784;26;19999;-39
2024/04/15 06:26:53;;;;;;;6.50;2.20;;;;;;;9.03;100.00;101075.47;5418242;26;20443;-39
2024/04/15 06:29:18;;;;;;;6.57;2.13;;;;;;;8.93;100.00;101061.63;5418600;26;20000;-39
2024/04/15 06:31:44;;;;;;;7.22;2.22;;;;;;;8.95;100.00;101059.53;5418128;26;20717;-40
2024/04/15 06:34:09;;;;;;;8.35;2.28;;;;;;;9.03;100.00;101045.81;5418653;26;20010;-40
2024/04/15 06:36:35;;;;;;;5.57;2.60;;;;;;;9.08;100.00;101044.31;5416352;26;20509;-39
2024/04/15 06:39:00;;;;;;;9.43;2.40;;;;;;;9.25;100.00;101045.47;5417965;26;20436;-40
2024/04/15 06:41:26;;;;;;;7.90;2.00;;;;;;;9.34;100.00;101036.06;5417654;26;20666;-38
2024/04/15 06:43:51;;;;;;;6.53;2.17;;;;;;;9.33;100.00;101022.78;5418194;26;20065;-39
2024/04/15 06:46:16;;;;;;;6.50;2.05;;;;;;;9.46;100.00;101041.56;5417806;26;19999;-39
2024/04/15 06:48:43;;;;;;;6.47;2.33;;;;;;;9.41;100.00;101036.81;5417919;26;20011;-39
2024/04/15 06:51:09;;;;;;;7.35;2.38;;;;;;;9.44;100.00;101022.91;5418048;26;20214;-39
2024/04/15 06:53:35;;;;;;;;;;;;;;;9.65;100.00;101028.97;5417826;26;20007;-39
2024/04/15 06:56:00;;;;;;;12.55;2.65;;;;;;;9.67;100.00;101024.19;5418035;26;19925;-39
2024/04/15 06:58:26;;;;;;;7.70;2.37;;;;;;;9.74;100.00;101019.56;5418044;26;19992;-39
2024/04/15 07:00:52;;;;;;;9.75;2.03;;;;;;;9.86;100.00;101000.72;5417878;26;19999;-39
2024/04/15 07:03:17;;;;;;;7.68;2.30;;;;;;;9.87;100.00;100992.44;5417853;26;19996;-39
2024/04/15 07:05:42;;;;;;;8.03;2.30;;;;;;;9.96;100.00;100991.09;5417859;26;19999;-39
2024/04/15 07:08:08;;;;;;;6.00;1.93;;;;;;;10.04;100.00;100989.97;5418140;26;19992;-39
2024/04/15 07:10:33;;;;;;;9.07;2.90;;;;;;;10.05;100.00;100986.22;5418034;26;19991;-39
2024/04/15 07:13:02;;;;;;;10.02;2.83;;;;;;;10.19;100.00;100976.09;5417328;26;20206;-39
2024/04/15 07:15:27;;;;;;;6.95;2.38;;;;;;;10.28;100.00;100981.00;5419149;26;19999;-39
2024/04/15 07:17:53;;;;;;;8.20;2.45;;;;;;;10.49;100.00;100974.31;5420767;26;20428;-39
2024/04/15 07:20:18;;;;;;;7.88;2.13;;;;;;;10.49;100.00;100949.13;5421609;26;19992;-39
2024/04/15 07:22:44;;;;;;;9.43;2.88;;;;;;;10.64;100.00;100956.84;5421041;26;20008;-39
2024/04/15 07:25:09;;;;;;;6.60;2.00;;;;;;;10.71;100.00;100957.59;5421870;26;19995;-39
2024/04/15 07:27:35;;;;;;;6.23;2.40;;;;;;;10.61;100.00;100946.50;5420582;26;20003;-39
2024/04/15 07:30:01;;;;;;;7.65;2.38;;;;;;;10.63;100.00;100950.63;5421080;26;20217;-39
2024/04/15 07:32:27;;;;;;;10.55;2.55;;;;;;;10.56;100.00;100948.00;5420910;26;20010;-39
2024/04/15 07:34:52;;;;;;;9.47;2.20;;;;;;;10.46;100.00;100945.03;5421290;26;19999;-39
2024/04/15 07:37:17;;;;;;;8.60;2.25;;;;;;;10.37;100.00;100924.75;5420276;26;20443;-39
2024/04/15 07:39:46;;;;;;;10.00;2.40;;;;;;;10.45;100.00;100915.53;5421189;26;20000;-39
2024/04/15 07:42:11;;;;;;;6.85;2.17;;;;;;;10.49;100.00;100922.09;5420461;26;20373;-39
2024/04/15 07:44:37;;;;;;;8.45;2.20;;;;;;;10.47;100.00;100908.81;5421047;26;20041;-39
2024/04/15 07:47:02;;;;;;;7.32;1.85;;;;;;;10.41;100.00;100890.81;5420158;26;19995;-39
2024/04/15 07:49:27;;;;;;;7.60;2.75;;;;;;;10.46;100.00;100896.34;5420523;26;20011;-38
2024/04/15 07:51:53;;;;;;;5.30;2.10;;;;;;;10.36;100.00;100877.16;5420496;26;19995;-39
2024/04/15 07:54:18;;;;;;;8.07;1.80;;;;;;;10.48;100.00;100891.53;5420589;26;20257;-39
2024/04/15 07:56:43;;;;;;;6.30;1.87;;;;;;;10.62;100.00;100881.38;5421079;26;20008;-39
2024/04/15 07:59:09;;;;;;;8.40;2.50;;;;;;;10.61;100.00;100876.19;5421240;26;19999;-39
2024/04/15 08:01:34;;;;;;;5.38;1.83;;;;;;;10.74;100.00;100878.72;5420257;26;19996;-39
2024/04/15 08:03:59;;;;;;;5.77;2.30;;;;;;;10.75;100.00;100866.84;5421084;26;20002;-47
2024/04/15 08:06:25;;;;;;;9.60;2.30;;;;;;;10.81;100.00;100874.00;5420499;26;19996;-39
2024/04/15 08:08:50;;;;;;;8.00;2.22;;;;;;;10.81;100.00;100871.31;5420386;26;19996;-38
2024/04/15 08:11:16;;;;;;;7.82;1.63;;;;;;;10.94;100.00;100870.28;5420236;26;20450;-39
2024/04/15 08:13:44;;;;;;;7.57;2.28;;;;;;;10.96;100.00;100868.16;5420865;26;20300;-38
2024/04/15 08:16:09;;;;;;;12.18;2.22;;;;;;;11.07;100.00;100860.03;5420546;26;20045;-39
2024/04/15 08:18:35;;;;;;;8.32;2.30;;;;;;;11.11;100.00;100846.06;5420675;26;20003;-39
2024/04/15 08:21:00;;;;;;;7.67;1.80;;;;;;;11.04;100.00;100846.19;5420706;26;19996;-39
2024/04/15 08:23:25;;;;;;;8.97;1.93;;;;;;;11.03;100.00;100848.06;5420310;26;20022;-39
2024/04/15 08:25:55;;;;;;;5.33;1.53;;;;;;;10.96;100.00;100841.94;5420025;26;20213;-39
2024/04/15 08:28:21;;;;;;;5.90;1.80;;;;;;;11.06;100.00;100838.63;5419496;26;20467;-39
2024/04/15 08:30:47;;;;;;;6.53;1.92;;;;;;;11.11;100.00;100810.88;5419561;26;20039;-38
2024/04/15 08:33:13;;;;;;;6.50;1.88;;;;;;;11.12;100.00;100815.22;5419429;26;20451;-39
2024/04/15 08:35:39;;;;;;;6.50;1.70;;;;;;;11.12;99.55;100807.09;5420492;26;20007;-38
2024/04/15 08:38:05;;;;;;;7.45;1.70;;;;;;;11.03;98.25;100795.84;5419575;26;20008;-39
2024/04/15 08:40:31;;;;;;;4.85;1.60;;;;;;;11.05;98.40;100786.41;5419805;26;20447;-39
2024/04/15 08:42:57;;;;;;;7.45;1.80;;;;;;;11.11;98.82;100776.50;5419949;26;20003;-39
2024/04/15 08:45:23;;;;;;;5.82;1.55;;;;;;;11.39;97.34;100791.22;5419938;26;20004;-39
2024/04/15 08:47:53;;;;;;;8.27;2.45;;;;;;;11.49;96.44;100773.28;5419539;26;20407;-39
2024/04/15 08:50:23;;;;;;;8.20;1.80;;;;;;;11.58;94.18;100776.47;5419598;26;20004;-39
2024/04/15 08:52:50;;;;;;;7.05;1.90;;;;;;;11.48;92.83;100768.13;5420115;26;19996;-40
2024/04/15 08:55:15;;;;;;;7.63;1.90;;;;;;;11.34;92.08;100756.72;5419925;26;20032;-39
2024/04/15 08:57:43;;;;;;;9.75;1.90;;;;;;;11.33;93.38;100733.44;5419603;26;20000;-39
2024/04/15 09:00:11;;;;;;;7.45;1.60;;;;;;;11.53;93.65;100758.22;5420348;26;20076;-39
2024/04/15 09:02:38;;;;;;;5.10;1.75;;;;;;;11.65;94.89;100739.22;5419768;26;19995;-39
2024/04/15 09:05:04;;;;;;;7.70;1.88;;;;;;;11.75;92.08;100735.88;5419953;26;20020;-40
2024/04/15 09:07:29;;;;;;;5.65;1.65;;;;;;;11.91;92.75;100723.47;5419539;26;20111;-39
2024/04/15 09:09:55;;;;;;;9.05;2.00;;;;;;;12.11;89.89;100723.88;5419888;26;20428;-40
2024/04/15 09:12:20;;;;;;;6.78;2.10;;;;;;;12.34;89.10;100709.34;5419908;26;20053;-38
2024/04/15 09:14:45;;;;;;;9.40;2.37;;;;;;;12.34;86.50;100714.75;5419735;26;20010;-39
2024/04/15 09:17:15;;;;;;;6.23;1.90;;;;;;;12.39;87.72;100706.72;5419284;26;20332;-39
2024/04/15 09:19:44;;;;;;;8.70;1.75;;;;;;;12.42;83.52;100706.22;5419821;26;19995;-39
2024/04/15 09:22:11;;;;;;;8.05;1.88;;;;;;;12.51;84.33;100701.22;5419080;26;20072;-39
2024/04/15 09:24:38;;;;;;;8.30;1.95;;;;;;;12.52;82.62;100686.59;5419464;26;19992;-39
2024/04/15 09:27:04;;;;;;;6.78;1.92;;;;;;;12.46;82.50;100693.81;5419092;26;20002;-39
2024/04/15 09:29:29;;;;;;;;;;;;;;;12.47;84.03;100678.38;5420235;26;19995;-39
2024/04/15 09:31:55;;;;;;;6.43;1.30;;;;;;;12.20;84.77;100661.94;5419105;26;19936;-39
2024/04/15 09:34:21;;;;;;;5.50;1.50;;;;;;;12.19;85.26;100663.00;5419291;26;20245;-39
2024/04/15 09:36:47;;;;;;;5.90;1.75;;;;;;;12.06;86.22;100661.44;5418939;26;20068;-39
2024/04/15 09:39:13;;;;;;;7.35;1.70;;;;;;;11.92;85.12;100639.25;5417713;26;20072;-39
2024/04/15 09:41:39;;;;;;;4.95;1.42;;;;;;;11.83;84.26;100621.75;5418620;26;20475;-39
2024/04/15 09:44:09;;;;;;;8.95;1.63;;;;;;;11.93;84.70;100630.06;5419404;26;19992;-39
2024/04/15 09:46:35;;;;;;;6.78;1.83;;;;;;;11.92;87.89;100611.34;5419176;26;20447;-39
2024/04/15 09:49:03;;;;;;;;;;;;;;;12.04;86.81;100615.59;5419729;26;19995;-39
2024/04/15 09:51:32;;;;;;;5.03;1.40;;;;;;;11.78;88.19;100605.38;5418995;26;19936;-39
2024/04/15 09:54:01;;;;;;;5.53;1.40;;;;;;;11.77;87.95;100601.03;5418707;26;19991;-39
2024/04/15 09:56:29;;;;;;;5.38;1.52;;;;;;;11.99;91.05;100599.25;5418969;26;20439;-39
2024/04/15 09:58:56;;;;;;;4.72;1.50;;;;;;;11.97;86.43;100585.16;5418955;26;20362;-40
2024/04/15 10:01:25;;;;;;;4.70;1.45;;;;;;;11.99;85.51;100569.44;5419245;26;20002;-40
2024/04/15 10:03:55;;;;;;;8.10;1.70;;;;;;;11.98;84.70;100578.66;5419441;26;19996;-40
2024/04/15 10:06:39;;;;;;;4.22;1.45;;;;;;;11.83;84.74;100549.41;5418476;26;20094;-38
2024/04/15 10:09:05;;;;;;;4.05;1.20;;;;;;;11.80;84.42;100539.03;5418700;26;19992;-40
2024/04/15 10:11:32;;;;;;;7.30;1.67;;;;;;;11.80;84.34;100528.19;5418775;26;19996;-39
2024/04/15 10:13:58;;;;;;;8.65;1.67;;;;;;;11.88;84.15;100515.34;5418755;26;20006;-39
2024/04/15 10:16:25;;;;;;;6.57;1.67;;;;;;;12.01;85.10;100513.13;5418598;26;19995;-39
2024/04/15 10:18:57;;;;;;;5.68;1.75;;;;;;;12.13;84.43;100506.78;5419006;26;20070;-39
2024/04/15 10:21:23;;;;;;;4.80;1.30;;;;;;;12.17;83.64;100502.50;5418502;26;19996;-39
2024/04/15 10:23:48;;;;;;;6.97;1.60;;;;;;;12.28;82.50;100501.56;5418825;26;20473;-39
2024/04/15 10:26:14;;;;;;;8.05;1.65;;;;;;;12.25;83.19;100493.94;5418099;26;20009;-39
2024/04/15 10:28:40;;;;;;;9.73;1.70;;;;;;;12.23;82.04;100488.75;5418100;26;20428;-39
2024/04/15 10:31:05;;;;;;;8.25;1.50;;;;;;;12.05;81.05;100476.34;5418337;26;19996;-39
2024/04/15 10:33:30;;;;;;;5.07;1.50;;;;;;;11.99;81.61;100485.44;5418413;26;20316;-40
2024/04/15 10:35:56;;;;;;;5.35;1.70;;;;;;;11.88;82.14;100475.53;5418359;26;19995;-39
2024/04/15 10:38:26;;;;;;;5.30;1.40;;;;;;;11.75;83.95;100454.97;5418294;26;20026;-39
2024/04/15 10:40:52;;;;;;;4.88;1.58;;;;;;;11.70;84.66;100454.09;5418213;26;20023;-39
2024/04/15 10:43:18;;;;;;;;;;;;;;;11.69;85.34;100444.31;5418528;26;20008;-39
2024/04/15 10:45:47;;;;;;;6.35;2.03;;;;;;;11.49;90.52;100428.59;5418150;26;19925;-39
2024/04/15 10:48:13;;;;;;;3.63;1.50;;;;;;;11.29;90.42;100412.84;5417604;26;20004;-39
2024/04/15 10:50:40;;;;;;;6.80;1.50;;;;;;;11.17;94.44;100409.38;5417507;26;20069;-39
2024/04/15 10:53:05;;;;;;;11.23;1.40;;;;;;;11.07;98.90;100382.97;5417502;26;20008;-39
2024/04/15 10:55:31;;;;;;;8.32;1.77;;;;;;;11.13;100.00;100392.03;5418172;26;19996;-39
2024/04/15 10:57:56;;;;;;;6.60;1.35;;;;;;;11.10;99.28;100382.50;5417912;26;19996;-40
2024/04/15 11:00:24;;;;;;;4.07;1.60;;;;;;;11.10;99.08;100374.38;5418621;26;20007;-39
2024/04/15 11:02:51;;;;;;;6.50;1.48;;;;;;;11.08;100.00;100363.00;5417534;26;20439;-39
2024/04/15 11:05:17;;;;;;;6.78;1.35;;;;;;;11.07;100.00;100367.56;5417689;26;20014;-39
2024/04/15 11:07:44;;;;;;;5.50;1.27;;;;;;;11.02;100.00;100355.84;5417797;26;20011;-39
2024/04/15 11:10:11;;;;;;;6.47;1.63;;;;;;;10.91;100.00;100365.66;5418994;26;20479;-40
2024/04/15 11:12:37;;;;;;;5.75;1.85;;;;;;;10.67;100.00;100353.34;5417765;26;20010;-40
2024/04/15 11:15:03;;;;;;;;;;;;;;;10.73;100.00;100361.28;5418554;26;19991;-39
2024/04/15 11:17:30;;;;;;;5.05;1.20;;;;;;;10.48;100.00;100364.38;5417354;26;20356;-39